sensor_id;sensor_type;location;lat;lon;timestamp;pressure;altitude;pressure_sealevel;temperature;humidity
60240;BME280;46102;39.012;-7.064;2023-02-26T00:01:15;97723.50;;;8.98;91.91
60240;BME280;46102;39.012;-7.064;2023-02-26T00:03:16;97734.91;;;9.00;92.13
60240;BME280;46102;39.012;-7.064;2023-02-26T00:05:17;97735.41;;;9.02;92.13
60240;BME280;46102;39.012;-7.064;2023-02-26T00:07:18;97745.19;;;9.03;92.12
60240;BME280;46102;39.012;-7.064;2023-02-26T00:09:19;97734.72;;;9.05;91.64
60240;BME280;46102;39.012;-7.064;2023-02-26T00:11:20;97735.09;;;9.03;91.80
60240;BME280;46102;39.012;-7.064;2023-02-26T00:13:21;97725.44;;;8.97;91.78
60240;BME280;46102;39.012;-7.064;2023-02-26T00:15:23;97726.91;;;8.94;92.05
60240;BME280;46102;39.012;-7.064;2023-02-26T00:17:57;97735.09;;;8.94;91.67
60240;BME280;46102;39.012;-7.064;2023-02-26T00:20:02;97739.78;;;8.94;91.87
60240;BME280;46102;39.012;-7.064;2023-02-26T00:22:03;97729.94;;;8.93;91.74
60240;BME280;46102;39.012;-7.064;2023-02-26T00:24:04;97736.22;;;8.93;91.61
60240;BME280;46102;39.012;-7.064;2023-02-26T00:26:06;97730.09;;;8.96;91.46
60240;BME280;46102;39.012;-7.064;2023-02-26T00:28:08;97728.00;;;8.93;91.75
60240;BME280;46102;39.012;-7.064;2023-02-26T00:30:09;97730.09;;;8.96;92.21
60240;BME280;46102;39.012;-7.064;2023-02-26T00:32:11;97733.63;;;8.97;92.21
60240;BME280;46102;39.012;-7.064;2023-02-26T00:34:12;97737.34;;;8.92;91.62
60240;BME280;46102;39.012;-7.064;2023-02-26T00:38:29;97740.41;;;8.91;91.48
60240;BME280;46102;39.012;-7.064;2023-02-26T00:40:47;97736.09;;;8.90;91.80
60240;BME280;46102;39.012;-7.064;2023-02-26T00:42:49;97734.63;;;8.92;91.36
60240;BME280;46102;39.012;-7.064;2023-02-26T00:44:50;97734.63;;;8.92;91.45
60240;BME280;46102;39.012;-7.064;2023-02-26T00:49:26;97734.75;;;8.96;91.67
60240;BME280;46102;39.012;-7.064;2023-02-26T00:51:47;97732.69;;;8.93;91.36
60240;BME280;46102;39.012;-7.064;2023-02-26T00:56:15;97733.19;;;8.86;91.78
60240;BME280;46102;39.012;-7.064;2023-02-26T00:58:16;97723.84;;;8.87;91.84
60240;BME280;46102;39.012;-7.064;2023-02-26T01:00:17;97727.88;;;8.90;92.02
60240;BME280;46102;39.012;-7.064;2023-02-26T01:02:18;97725.63;;;8.92;92.35
60240;BME280;46102;39.012;-7.064;2023-02-26T01:04:21;97727.22;;;8.93;92.18
60240;BME280;46102;39.012;-7.064;2023-02-26T01:06:29;97725.78;;;8.87;92.23
60240;BME280;46102;39.012;-7.064;2023-02-26T01:08:39;97719.81;;;8.85;92.89
60240;BME280;46102;39.012;-7.064;2023-02-26T01:10:42;97713.25;;;8.86;91.92
60240;BME280;46102;39.012;-7.064;2023-02-26T01:12:43;97716.44;;;8.88;92.69
60240;BME280;46102;39.012;-7.064;2023-02-26T01:14:44;97714.69;;;8.92;92.62
60240;BME280;46102;39.012;-7.064;2023-02-26T01:19:19;97710.19;;;8.87;92.90
60240;BME280;46102;39.012;-7.064;2023-02-26T01:21:31;97706.00;;;8.90;92.33
60240;BME280;46102;39.012;-7.064;2023-02-26T01:23:40;97713.41;;;8.89;92.72
60240;BME280;46102;39.012;-7.064;2023-02-26T01:25:56;97711.78;;;8.88;92.89
60240;BME280;46102;39.012;-7.064;2023-02-26T01:27:58;97703.41;;;8.85;92.98
60240;BME280;46102;39.012;-7.064;2023-02-26T01:30:00;97701.81;;;8.84;93.03
60240;BME280;46102;39.012;-7.064;2023-02-26T01:32:07;97703.88;;;8.87;93.65
60240;BME280;46102;39.012;-7.064;2023-02-26T01:34:24;97700.53;;;8.90;92.94
60240;BME280;46102;39.012;-7.064;2023-02-26T01:36:31;97700.84;;;8.88;93.34
60240;BME280;46102;39.012;-7.064;2023-02-26T01:43:13;97705.34;;;8.84;92.61
60240;BME280;46102;39.012;-7.064;2023-02-26T01:45:20;97711.47;;;8.81;92.79
60240;BME280;46102;39.012;-7.064;2023-02-26T01:47:38;97711.66;;;8.76;93.15
60240;BME280;46102;39.012;-7.064;2023-02-26T01:49:40;97715.69;;;8.70;93.27
60240;BME280;46102;39.012;-7.064;2023-02-26T01:53:47;97715.38;;;8.63;94.07
60240;BME280;46102;39.012;-7.064;2023-02-26T01:55:54;97715.22;;;8.59;93.92
60240;BME280;46102;39.012;-7.064;2023-02-26T01:57:57;97712.31;;;8.55;94.18
60240;BME280;46102;39.012;-7.064;2023-02-26T01:59:59;97713.47;;;8.54;93.30
60240;BME280;46102;39.012;-7.064;2023-02-26T02:02:03;97716.84;;;8.51;93.18
60240;BME280;46102;39.012;-7.064;2023-02-26T02:04:09;97711.69;;;8.50;93.34
60240;BME280;46102;39.012;-7.064;2023-02-26T02:06:18;97717.00;;;8.46;93.04
60240;BME280;46102;39.012;-7.064;2023-02-26T02:08:21;97716.69;;;8.48;93.23
60240;BME280;46102;39.012;-7.064;2023-02-26T02:10:22;97720.06;;;8.45;93.66
60240;BME280;46102;39.012;-7.064;2023-02-26T02:15:03;97715.22;;;8.42;94.10
60240;BME280;46102;39.012;-7.064;2023-02-26T02:17:08;97727.00;;;8.42;93.95
60240;BME280;46102;39.012;-7.064;2023-02-26T02:24:20;97729.69;;;8.33;94.55
60240;BME280;46102;39.012;-7.064;2023-02-26T02:31:44;97731.59;;;8.33;95.58
60240;BME280;46102;39.012;-7.064;2023-02-26T02:33:52;97722.94;;;8.31;95.94
60240;BME280;46102;39.012;-7.064;2023-02-26T02:36:00;97731.94;;;8.31;95.58
60240;BME280;46102;39.012;-7.064;2023-02-26T02:40:18;97725.03;;;8.34;96.07
60240;BME280;46102;39.012;-7.064;2023-02-26T02:42:27;97731.78;;;8.37;95.60
60240;BME280;46102;39.012;-7.064;2023-02-26T02:44:33;97725.19;;;8.38;95.69
60240;BME280;46102;39.012;-7.064;2023-02-26T02:46:38;97720.53;;;8.38;94.78
60240;BME280;46102;39.012;-7.064;2023-02-26T02:48:55;97725.66;;;8.40;94.90
60240;BME280;46102;39.012;-7.064;2023-02-26T02:51:01;97721.31;;;8.39;95.04
60240;BME280;46102;39.012;-7.064;2023-02-26T02:53:09;97724.56;;;8.41;95.13
60240;BME280;46102;39.012;-7.064;2023-02-26T02:55:19;97727.09;;;8.37;95.16
60240;BME280;46102;39.012;-7.064;2023-02-26T02:57:25;97722.28;;;8.34;95.85
60240;BME280;46102;39.012;-7.064;2023-02-26T03:01:33;97722.78;;;8.36;96.28
60240;BME280;46102;39.012;-7.064;2023-02-26T03:03:47;97716.19;;;8.37;95.75
60240;BME280;46102;39.012;-7.064;2023-02-26T03:05:50;97715.56;;;8.40;96.10
60240;BME280;46102;39.012;-7.064;2023-02-26T03:07:55;97719.09;;;8.41;96.00
60240;BME280;46102;39.012;-7.064;2023-02-26T03:09:57;97716.38;;;8.41;95.79
60240;BME280;46102;39.012;-7.064;2023-02-26T03:11:58;97710.91;;;8.41;95.76
60240;BME280;46102;39.012;-7.064;2023-02-26T03:13:59;97722.63;;;8.41;95.85
60240;BME280;46102;39.012;-7.064;2023-02-26T03:18:34;97711.72;;;8.41;95.79
60240;BME280;46102;39.012;-7.064;2023-02-26T03:20:55;97708.66;;;8.43;95.76
60240;BME280;46102;39.012;-7.064;2023-02-26T03:23:21;97716.53;;;8.36;96.30
60240;BME280;46102;39.012;-7.064;2023-02-26T03:25:40;97712.97;;;8.35;95.91
60240;BME280;46102;39.012;-7.064;2023-02-26T03:27:54;97710.56;;;8.33;96.86
60240;BME280;46102;39.012;-7.064;2023-02-26T03:30:11;97711.38;;;8.34;97.09
60240;BME280;46102;39.012;-7.064;2023-02-26T03:32:26;97714.09;;;8.34;96.68
60240;BME280;46102;39.012;-7.064;2023-02-26T03:34:49;97717.00;;;8.29;96.95
60240;BME280;46102;39.012;-7.064;2023-02-26T03:36:58;97713.94;;;8.30;97.18
60240;BME280;46102;39.012;-7.064;2023-02-26T03:39:21;97713.78;;;8.27;96.62
60240;BME280;46102;39.012;-7.064;2023-02-26T03:41:30;97721.81;;;8.23;97.16
60240;BME280;46102;39.012;-7.064;2023-02-26T03:43:54;97714.28;;;8.20;96.94
60240;BME280;46102;39.012;-7.064;2023-02-26T03:45:58;97721.66;;;8.20;97.06
60240;BME280;46102;39.012;-7.064;2023-02-26T03:48:04;97718.09;;;8.19;97.94
60240;BME280;46102;39.012;-7.064;2023-02-26T03:50:15;97714.28;;;8.20;97.45
60240;BME280;46102;39.012;-7.064;2023-02-26T03:52:36;97718.78;;;8.25;97.51
60240;BME280;46102;39.012;-7.064;2023-02-26T03:54:53;97727.09;;;8.28;97.86
60240;BME280;46102;39.012;-7.064;2023-02-26T03:57:21;97723.41;;;8.33;97.19
60240;BME280;46102;39.012;-7.064;2023-02-26T03:59:44;97730.31;;;8.30;96.94
60240;BME280;46102;39.012;-7.064;2023-02-26T04:02:32;97729.03;;;8.28;96.42
60240;BME280;46102;39.012;-7.064;2023-02-26T04:04:54;97739.66;;;8.29;96.67
60240;BME280;46102;39.012;-7.064;2023-02-26T04:06:56;97735.00;;;8.30;96.65
60240;BME280;46102;39.012;-7.064;2023-02-26T04:08:57;97729.22;;;8.31;96.69
60240;BME280;46102;39.012;-7.064;2023-02-26T04:11:05;97737.41;;;8.31;96.79
60240;BME280;46102;39.012;-7.064;2023-02-26T04:13:07;97737.91;;;8.33;96.30
60240;BME280;46102;39.012;-7.064;2023-02-26T04:15:09;97739.00;;;8.32;96.54
60240;BME280;46102;39.012;-7.064;2023-02-26T04:17:10;97733.06;;;8.30;96.75
60240;BME280;46102;39.012;-7.064;2023-02-26T04:19:11;97730.31;;;8.30;97.14
60240;BME280;46102;39.012;-7.064;2023-02-26T04:21:18;97732.91;;;8.27;96.71
60240;BME280;46102;39.012;-7.064;2023-02-26T04:23:21;97735.97;;;8.25;97.40
60240;BME280;46102;39.012;-7.064;2023-02-26T04:25:22;97737.59;;;8.26;97.24
60240;BME280;46102;39.012;-7.064;2023-02-26T04:27:23;97735.00;;;8.21;97.78
60240;BME280;46102;39.012;-7.064;2023-02-26T04:29:25;97736.91;;;8.21;97.71
60240;BME280;46102;39.012;-7.064;2023-02-26T04:31:25;97735.00;;;8.21;98.03
60240;BME280;46102;39.012;-7.064;2023-02-26T04:33:26;97733.53;;;8.24;98.16
60240;BME280;46102;39.012;-7.064;2023-02-26T04:35:27;97743.84;;;8.27;97.80
60240;BME280;46102;39.012;-7.064;2023-02-26T04:37:30;97735.78;;;8.22;97.89
60240;BME280;46102;39.012;-7.064;2023-02-26T04:39:31;97738.84;;;8.20;97.71
60240;BME280;46102;39.012;-7.064;2023-02-26T04:41:32;97732.91;;;8.18;97.55
60240;BME280;46102;39.012;-7.064;2023-02-26T04:43:33;97739.97;;;8.19;97.35
60240;BME280;46102;39.012;-7.064;2023-02-26T04:45:54;97740.13;;;8.14;97.29
60240;BME280;46102;39.012;-7.064;2023-02-26T04:47:55;97740.44;;;8.12;97.37
60240;BME280;46102;39.012;-7.064;2023-02-26T04:49:55;97735.47;;;8.14;97.51
60240;BME280;46102;39.012;-7.064;2023-02-26T04:51:56;97738.06;;;8.11;97.37
60240;BME280;46102;39.012;-7.064;2023-02-26T04:53:57;97742.06;;;8.13;97.30
60240;BME280;46102;39.012;-7.064;2023-02-26T04:55:58;97739.81;;;8.16;97.17
60240;BME280;46102;39.012;-7.064;2023-02-26T04:57:59;97744.81;;;8.13;96.97
60240;BME280;46102;39.012;-7.064;2023-02-26T05:00:00;97741.75;;;8.15;97.09
60240;BME280;46102;39.012;-7.064;2023-02-26T05:02:06;97746.41;;;8.14;96.18
60240;BME280;46102;39.012;-7.064;2023-02-26T05:04:13;97742.06;;;8.13;96.36
60240;BME280;46102;39.012;-7.064;2023-02-26T05:06:16;97739.34;;;8.13;96.10
60240;BME280;46102;39.012;-7.064;2023-02-26T05:08:17;97739.03;;;8.06;97.00
60240;BME280;46102;39.012;-7.064;2023-02-26T05:10:18;97733.19;;;7.99;96.92
60240;BME280;46102;39.012;-7.064;2023-02-26T05:12:19;97725.66;;;7.96;97.75
60240;BME280;46102;39.012;-7.064;2023-02-26T05:14:20;97738.53;;;7.96;97.33
60240;BME280;46102;39.012;-7.064;2023-02-26T05:16:22;97738.34;;;7.92;97.46
60240;BME280;46102;39.012;-7.064;2023-02-26T05:18:23;97741.41;;;7.90;97.84
60240;BME280;46102;39.012;-7.064;2023-02-26T05:20:24;97744.75;;;7.87;98.30
60240;BME280;46102;39.012;-7.064;2023-02-26T05:22:25;97739.16;;;7.84;97.91
60240;BME280;46102;39.012;-7.064;2023-02-26T05:24:26;97747.66;;;7.82;98.01
60240;BME280;46102;39.012;-7.064;2023-02-26T05:26:27;97743.78;;;7.83;98.11
60240;BME280;46102;39.012;-7.064;2023-02-26T05:28:28;97742.38;;;7.86;97.79
60240;BME280;46102;39.012;-7.064;2023-02-26T05:30:29;97743.00;;;7.83;97.69
60240;BME280;46102;39.012;-7.064;2023-02-26T05:32:30;97750.69;;;7.81;97.76
60240;BME280;46102;39.012;-7.064;2023-02-26T05:34:32;97746.50;;;7.83;97.69
60240;BME280;46102;39.012;-7.064;2023-02-26T05:36:33;97749.25;;;7.83;97.32
60240;BME280;46102;39.012;-7.064;2023-02-26T05:38:34;97751.81;;;7.80;97.05
60240;BME280;46102;39.012;-7.064;2023-02-26T05:40:35;97760.31;;;7.78;97.44
60240;BME280;46102;39.012;-7.064;2023-02-26T05:42:36;97755.19;;;7.77;96.91
60240;BME280;46102;39.012;-7.064;2023-02-26T05:44:37;97758.06;;;7.71;98.06
60240;BME280;46102;39.012;-7.064;2023-02-26T05:46:38;97752.09;;;7.69;97.65
60240;BME280;46102;39.012;-7.064;2023-02-26T05:48:39;97751.13;;;7.65;97.22
60240;BME280;46102;39.012;-7.064;2023-02-26T05:50:39;97751.13;;;7.65;97.08
60240;BME280;46102;39.012;-7.064;2023-02-26T05:52:40;97758.69;;;7.60;97.94
60240;BME280;46102;39.012;-7.064;2023-02-26T05:54:41;97755.16;;;7.59;97.86
60240;BME280;46102;39.012;-7.064;2023-02-26T05:56:42;97762.06;;;7.57;97.88
60240;BME280;46102;39.012;-7.064;2023-02-26T05:58:43;97757.06;;;7.59;97.97
60240;BME280;46102;39.012;-7.064;2023-02-26T06:00:44;97763.34;;;7.59;98.00
60240;BME280;46102;39.012;-7.064;2023-02-26T06:02:45;97762.69;;;7.62;97.76
60240;BME280;46102;39.012;-7.064;2023-02-26T06:04:46;97759.16;;;7.62;98.46
60240;BME280;46102;39.012;-7.064;2023-02-26T06:06:46;97762.38;;;7.64;97.98
60240;BME280;46102;39.012;-7.064;2023-02-26T06:08:47;97768.66;;;7.64;97.94
60240;BME280;46102;39.012;-7.064;2023-02-26T06:10:49;97760.47;;;7.64;97.30
60240;BME280;46102;39.012;-7.064;2023-02-26T06:12:50;97763.19;;;7.64;97.87
60240;BME280;46102;39.012;-7.064;2023-02-26T06:14:51;97767.19;;;7.67;97.72
60240;BME280;46102;39.012;-7.064;2023-02-26T06:16:52;97770.25;;;7.65;97.34
60240;BME280;46102;39.012;-7.064;2023-02-26T06:18:53;97776.03;;;7.64;97.06
60240;BME280;46102;39.012;-7.064;2023-02-26T06:20:53;97774.41;;;7.63;98.43
60240;BME280;46102;39.012;-7.064;2023-02-26T06:22:54;97775.69;;;7.65;97.95
60240;BME280;46102;39.012;-7.064;2023-02-26T06:24:55;97778.13;;;7.67;98.17
60240;BME280;46102;39.012;-7.064;2023-02-26T06:26:56;97778.63;;;7.69;98.44
60240;BME280;46102;39.012;-7.064;2023-02-26T06:28:56;97777.97;;;7.72;97.50
60240;BME280;46102;39.012;-7.064;2023-02-26T06:30:57;97774.44;;;7.71;97.73
60240;BME280;46102;39.012;-7.064;2023-02-26T06:32:58;97775.25;;;7.72;97.48
60240;BME280;46102;39.012;-7.064;2023-02-26T06:34:59;97777.34;;;7.75;97.54
60240;BME280;46102;39.012;-7.064;2023-02-26T06:37:00;97773.19;;;7.78;97.12
60240;BME280;46102;39.012;-7.064;2023-02-26T06:39:00;97777.03;;;7.77;97.26
60240;BME280;46102;39.012;-7.064;2023-02-26T06:41:01;97771.09;;;7.75;97.61
60240;BME280;46102;39.012;-7.064;2023-02-26T06:43:02;97774.13;;;7.73;97.07
60240;BME280;46102;39.012;-7.064;2023-02-26T06:45:03;97771.22;;;7.69;97.38
60240;BME280;46102;39.012;-7.064;2023-02-26T06:47:04;97779.41;;;7.69;97.51
60240;BME280;46102;39.012;-7.064;2023-02-26T06:49:05;97774.94;;;7.74;97.71
60240;BME280;46102;39.012;-7.064;2023-02-26T06:51:06;97777.97;;;7.72;97.52
60240;BME280;46102;39.012;-7.064;2023-02-26T06:53:07;97777.19;;;7.71;97.59
60240;BME280;46102;39.012;-7.064;2023-02-26T06:55:09;97778.16;;;7.76;97.89
60240;BME280;46102;39.012;-7.064;2023-02-26T06:57:10;97789.38;;;7.74;97.54
60240;BME280;46102;39.012;-7.064;2023-02-26T06:59:10;97785.38;;;7.71;97.31
60240;BME280;46102;39.012;-7.064;2023-02-26T07:01:11;97773.66;;;7.71;97.52
60240;BME280;46102;39.012;-7.064;2023-02-26T07:03:14;97777.81;;;7.68;97.14
60240;BME280;46102;39.012;-7.064;2023-02-26T07:05:15;97780.84;;;7.67;97.94
60240;BME280;46102;39.012;-7.064;2023-02-26T07:07:16;97790.97;;;7.66;97.87
60240;BME280;46102;39.012;-7.064;2023-02-26T07:09:17;97789.69;;;7.64;97.60
60240;BME280;46102;39.012;-7.064;2023-02-26T07:11:20;97788.56;;;7.65;97.43
60240;BME280;46102;39.012;-7.064;2023-02-26T07:13:20;97787.75;;;7.64;97.21
60240;BME280;46102;39.012;-7.064;2023-02-26T07:15:21;97787.25;;;7.62;97.50
60240;BME280;46102;39.012;-7.064;2023-02-26T07:17:22;97789.19;;;7.62;97.53
60240;BME280;46102;39.012;-7.064;2023-02-26T07:19:23;97787.13;;;7.67;97.88
60240;BME280;46102;39.012;-7.064;2023-02-26T07:21:23;97791.31;;;7.74;97.72
60240;BME280;46102;39.012;-7.064;2023-02-26T07:23:24;97802.09;;;7.79;97.50
60240;BME280;46102;39.012;-7.064;2023-02-26T07:25:25;97800.22;;;8.05;97.69
60240;BME280;46102;39.012;-7.064;2023-02-26T07:27:26;97803.31;;;8.39;96.14
60240;BME280;46102;39.012;-7.064;2023-02-26T07:29:29;97805.44;;;8.68;94.34
60240;BME280;46102;39.012;-7.064;2023-02-26T07:31:30;97804.31;;;8.78;91.59
60240;BME280;46102;39.012;-7.064;2023-02-26T07:33:31;97803.19;;;8.79;90.24
60240;BME280;46102;39.012;-7.064;2023-02-26T07:35:31;97809.94;;;8.81;90.54
60240;BME280;46102;39.012;-7.064;2023-02-26T07:37:32;97821.34;;;9.01;88.95
60240;BME280;46102;39.012;-7.064;2023-02-26T07:39:33;97823.00;;;9.40;87.12
60240;BME280;46102;39.012;-7.064;2023-02-26T07:41:34;97824.78;;;9.83;85.50
60240;BME280;46102;39.012;-7.064;2023-02-26T07:43:34;97823.91;;;10.30;83.39
60240;BME280;46102;39.012;-7.064;2023-02-26T07:45:35;97838.03;;;10.61;81.17
60240;BME280;46102;39.012;-7.064;2023-02-26T07:47:36;97835.41;;;10.86;79.17
60240;BME280;46102;39.012;-7.064;2023-02-26T07:49:38;97831.78;;;10.94;77.83
60240;BME280;46102;39.012;-7.064;2023-02-26T07:51:39;97839.91;;;11.03;76.88
60240;BME280;46102;39.012;-7.064;2023-02-26T07:53:40;97853.59;;;10.91;76.55
60240;BME280;46102;39.012;-7.064;2023-02-26T07:55:41;97851.69;;;10.70;77.00
60240;BME280;46102;39.012;-7.064;2023-02-26T07:57:41;97852.22;;;10.63;77.34
60240;BME280;46102;39.012;-7.064;2023-02-26T07:59:42;97847.84;;;10.62;78.00
60240;BME280;46102;39.012;-7.064;2023-02-26T08:01:43;97853.28;;;10.50;78.28
60240;BME280;46102;39.012;-7.064;2023-02-26T08:03:44;97855.31;;;10.32;78.68
60240;BME280;46102;39.012;-7.064;2023-02-26T08:05:45;97863.19;;;10.04;79.72
60240;BME280;46102;39.012;-7.064;2023-02-26T08:07:45;97864.44;;;9.77;80.99
60240;BME280;46102;39.012;-7.064;2023-02-26T08:09:46;97863.06;;;9.62;81.12
60240;BME280;46102;39.012;-7.064;2023-02-26T08:11:47;97864.34;;;9.56;82.08
60240;BME280;46102;39.012;-7.064;2023-02-26T08:13:48;97860.66;;;9.52;82.89
60240;BME280;46102;39.012;-7.064;2023-02-26T08:15:49;97863.06;;;9.53;83.30
60240;BME280;46102;39.012;-7.064;2023-02-26T08:17:51;97857.78;;;9.48;82.63
60240;BME280;46102;39.012;-7.064;2023-02-26T08:19:53;97862.47;;;9.39;82.19
60240;BME280;46102;39.012;-7.064;2023-02-26T08:21:53;97864.94;;;9.23;83.00
60240;BME280;46102;39.012;-7.064;2023-02-26T08:23:55;97870.25;;;9.20;82.94
60240;BME280;46102;39.012;-7.064;2023-02-26T08:26:09;97866.41;;;9.12;83.49
60240;BME280;46102;39.012;-7.064;2023-02-26T08:28:11;97865.75;;;9.15;84.00
60240;BME280;46102;39.012;-7.064;2023-02-26T08:30:12;97866.25;;;9.00;83.26
60240;BME280;46102;39.012;-7.064;2023-02-26T08:32:13;97871.09;;;8.85;84.14
60240;BME280;46102;39.012;-7.064;2023-02-26T08:34:15;97874.78;;;8.81;84.33
60240;BME280;46102;39.012;-7.064;2023-02-26T08:36:15;97881.06;;;8.81;83.99
60240;BME280;46102;39.012;-7.064;2023-02-26T08:38:16;97883.97;;;8.76;84.56
60240;BME280;46102;39.012;-7.064;2023-02-26T08:40:17;97881.72;;;8.78;84.91
60240;BME280;46102;39.012;-7.064;2023-02-26T08:42:18;97896.81;;;8.84;85.10
60240;BME280;46102;39.012;-7.064;2023-02-26T08:44:19;97886.03;;;8.88;84.12
60240;BME280;46102;39.012;-7.064;2023-02-26T08:46:20;97889.41;;;8.93;83.41
60240;BME280;46102;39.012;-7.064;2023-02-26T08:48:22;97891.50;;;8.88;84.00
60240;BME280;46102;39.012;-7.064;2023-02-26T08:50:24;97894.06;;;9.10;83.46
60240;BME280;46102;39.012;-7.064;2023-02-26T08:52:25;97893.72;;;9.29;83.62
60240;BME280;46102;39.012;-7.064;2023-02-26T08:54:26;97896.59;;;9.50;82.22
60240;BME280;46102;39.012;-7.064;2023-02-26T08:56:27;97916.88;;;9.58;80.53
60240;BME280;46102;39.012;-7.064;2023-02-26T08:58:27;97902.88;;;9.51;80.35
60240;BME280;46102;39.012;-7.064;2023-02-26T09:00:28;97915.59;;;9.47;81.50
60240;BME280;46102;39.012;-7.064;2023-02-26T09:02:29;97919.09;;;9.73;81.40
60240;BME280;46102;39.012;-7.064;2023-02-26T09:04:30;97922.34;;;10.05;80.16
60240;BME280;46102;39.012;-7.064;2023-02-26T09:06:31;97924.34;;;10.34;78.31
60240;BME280;46102;39.012;-7.064;2023-02-26T09:08:32;97922.84;;;10.67;76.94
60240;BME280;46102;39.012;-7.064;2023-02-26T09:10:34;97933.78;;;10.96;75.66
60240;BME280;46102;39.012;-7.064;2023-02-26T09:12:35;97930.97;;;11.26;74.54
60240;BME280;46102;39.012;-7.064;2023-02-26T09:14:37;97929.69;;;11.57;72.39
60240;BME280;46102;39.012;-7.064;2023-02-26T09:16:37;97937.84;;;11.65;71.78
60240;BME280;46102;39.012;-7.064;2023-02-26T09:18:39;97942.25;;;11.79;71.33
60240;BME280;46102;39.012;-7.064;2023-02-26T09:20:42;97940.50;;;11.74;70.22
60240;BME280;46102;39.012;-7.064;2023-02-26T09:22:43;97945.94;;;11.50;70.58
60240;BME280;46102;39.012;-7.064;2023-02-26T09:24:43;97944.28;;;11.36;71.88
60240;BME280;46102;39.012;-7.064;2023-02-26T09:26:44;97952.94;;;11.26;71.77
60240;BME280;46102;39.012;-7.064;2023-02-26T09:28:45;97957.44;;;11.31;71.94
60240;BME280;46102;39.012;-7.064;2023-02-26T09:30:46;97951.03;;;11.60;71.57
60240;BME280;46102;39.012;-7.064;2023-02-26T09:32:47;97954.97;;;11.83;70.21
60240;BME280;46102;39.012;-7.064;2023-02-26T09:34:48;97958.50;;;12.05;69.44
60240;BME280;46102;39.012;-7.064;2023-02-26T09:36:49;97951.16;;;12.21;68.17
60240;BME280;46102;39.012;-7.064;2023-02-26T09:38:49;97945.00;;;12.37;67.37
60240;BME280;46102;39.012;-7.064;2023-02-26T09:40:55;97950.16;;;12.50;66.96
60240;BME280;46102;39.012;-7.064;2023-02-26T09:43:25;97946.00;;;12.69;66.13
60240;BME280;46102;39.012;-7.064;2023-02-26T09:45:32;97952.97;;;12.91;65.01
60240;BME280;46102;39.012;-7.064;2023-02-26T09:47:44;97955.22;;;13.01;63.97
60240;BME280;46102;39.012;-7.064;2023-02-26T09:50:05;97957.31;;;13.04;63.93
60240;BME280;46102;39.012;-7.064;2023-02-26T09:52:21;97957.72;;;13.19;63.49
60240;BME280;46102;39.012;-7.064;2023-02-26T09:54:25;97964.75;;;13.28;62.54
60240;BME280;46102;39.012;-7.064;2023-02-26T09:56:32;97966.88;;;13.35;62.01
60240;BME280;46102;39.012;-7.064;2023-02-26T09:58:37;97966.09;;;13.63;61.76
60240;BME280;46102;39.012;-7.064;2023-02-26T10:01:00;97973.09;;;13.88;60.23
60240;BME280;46102;39.012;-7.064;2023-02-26T10:05:28;97966.91;;;13.63;59.45
60240;BME280;46102;39.012;-7.064;2023-02-26T10:10:06;97973.91;;;13.61;60.41
60240;BME280;46102;39.012;-7.064;2023-02-26T10:12:16;97972.81;;;13.93;58.90
60240;BME280;46102;39.012;-7.064;2023-02-26T10:14:23;97971.06;;;14.01;59.20
60240;BME280;46102;39.012;-7.064;2023-02-26T10:16:29;97966.09;;;14.23;58.24
60240;BME280;46102;39.012;-7.064;2023-02-26T10:18:37;97981.63;;;14.59;57.05
60240;BME280;46102;39.012;-7.064;2023-02-26T10:23:15;97982.41;;;14.60;56.41
60240;BME280;46102;39.012;-7.064;2023-02-26T10:25:20;97977.34;;;14.62;56.28
60240;BME280;46102;39.012;-7.064;2023-02-26T10:27:35;97981.69;;;14.63;56.23
60240;BME280;46102;39.012;-7.064;2023-02-26T10:29:50;97977.38;;;14.81;56.11
60240;BME280;46102;39.012;-7.064;2023-02-26T10:34:27;97980.25;;;15.20;54.41
60240;BME280;46102;39.012;-7.064;2023-02-26T10:38:41;97974.97;;;15.70;52.00
60240;BME280;46102;39.012;-7.064;2023-02-26T10:40:50;97978.25;;;15.75;52.04
60240;BME280;46102;39.012;-7.064;2023-02-26T10:43:03;97968.03;;;15.99;52.37
60240;BME280;46102;39.012;-7.064;2023-02-26T10:47:34;97985.69;;;16.37;50.65
60240;BME280;46102;39.012;-7.064;2023-02-26T10:49:53;97972.81;;;16.48;48.58
60240;BME280;46102;39.012;-7.064;2023-02-26T10:51:56;97975.34;;;16.57;48.79
60240;BME280;46102;39.012;-7.064;2023-02-26T10:54:26;97979.06;;;16.68;49.08
60240;BME280;46102;39.012;-7.064;2023-02-26T10:56:30;97970.41;;;16.70;48.57
60240;BME280;46102;39.012;-7.064;2023-02-26T10:58:32;97964.72;;;16.82;48.31
60240;BME280;46102;39.012;-7.064;2023-02-26T11:00:33;97963.09;;;17.08;47.65
60240;BME280;46102;39.012;-7.064;2023-02-26T11:02:43;97963.34;;;17.29;47.71
60240;BME280;46102;39.012;-7.064;2023-02-26T11:04:44;97956.53;;;17.53;44.99
60240;BME280;46102;39.012;-7.064;2023-02-26T11:06:51;97967.81;;;17.67;43.40
60240;BME280;46102;39.012;-7.064;2023-02-26T11:08:56;97970.44;;;17.87;43.97
60240;BME280;46102;39.012;-7.064;2023-02-26T11:11:02;97974.47;;;17.93;43.96
60240;BME280;46102;39.012;-7.064;2023-02-26T11:13:03;97979.09;;;17.82;43.81
60240;BME280;46102;39.012;-7.064;2023-02-26T11:15:04;97971.34;;;17.64;43.20
60240;BME280;46102;39.012;-7.064;2023-02-26T11:17:12;97973.81;;;17.73;43.38
60240;BME280;46102;39.012;-7.064;2023-02-26T11:19:15;97975.88;;;17.80;43.88
60240;BME280;46102;39.012;-7.064;2023-02-26T11:21:21;97978.88;;;17.98;42.18
60240;BME280;46102;39.012;-7.064;2023-02-26T11:23:26;97968.56;;;17.95;40.80
60240;BME280;46102;39.012;-7.064;2023-02-26T11:25:29;97969.53;;;17.79;41.48
60240;BME280;46102;39.012;-7.064;2023-02-26T11:27:35;97969.63;;;17.86;42.24
60240;BME280;46102;39.012;-7.064;2023-02-26T11:29:37;97962.59;;;17.93;42.63
60240;BME280;46102;39.012;-7.064;2023-02-26T11:31:39;97962.28;;;18.01;40.69
60240;BME280;46102;39.012;-7.064;2023-02-26T11:33:44;97962.13;;;18.28;40.48
60240;BME280;46102;39.012;-7.064;2023-02-26T11:35:48;97964.97;;;18.35;39.92
60240;BME280;46102;39.012;-7.064;2023-02-26T11:37:54;97954.88;;;18.61;39.57
60240;BME280;46102;39.012;-7.064;2023-02-26T11:40:04;97958.38;;;18.54;39.94
60240;BME280;46102;39.012;-7.064;2023-02-26T11:42:10;97959.81;;;18.37;41.12
60240;BME280;46102;39.012;-7.064;2023-02-26T11:44:13;97968.66;;;18.50;41.16
60240;BME280;46102;39.012;-7.064;2023-02-26T11:46:15;97965.19;;;18.64;40.95
60240;BME280;46102;39.012;-7.064;2023-02-26T11:48:22;97963.75;;;18.77;40.72